Time;durP1;ratioP1;P1;durP2;ratioP2;P2;SDS_P1;SDS_P2;PMS_P1;PMS_P2;Temp;Humidity;BMP_temperature;BMP_pressure;BME280_temperature;BME280_humidity;BME280_pressure;Samples;Min_cycle;Max_cycle;Signal;HPM_P1;HPM_P2
2022/10/19 00:02:16;;;;;;;23.85;11.10;;;;;;;;;;6287043;28;20143;-64
2022/10/19 00:05:16;;;;;;;27.33;12.07;;;;;;;;;;6282333;28;20045;-64
2022/10/19 00:08:17;;;;;;;24.52;11.52;;;;;;;;;;6286754;28;20075;-63
2022/10/19 00:11:17;;;;;;;33.45;12.68;;;;;;;;;;6289327;28;20074;-63
2022/10/19 00:14:21;;;;;;;25.55;11.73;;;;;;;;;;6290858;28;20063;-64
2022/10/19 00:17:22;;;;;;;25.13;11.20;;;;;;;;;;6283833;28;20071;-63
2022/10/19 00:20:22;;;;;;;29.35;12.27;;;;;;;;;;6287621;28;20464;-63
2022/10/19 00:23:23;;;;;;;35.80;14.18;;;;;;;;;;6285892;28;20514;-62
2022/10/19 00:26:24;;;;;;;33.97;14.23;;;;;;;;;;6284031;28;20049;-62
2022/10/19 00:29:25;;;;;;;29.97;13.90;;;;;;;;;;6284519;28;20049;-62
2022/10/19 00:32:25;;;;;;;35.47;14.45;;;;;;;;;;6284776;28;20401;-62
2022/10/19 00:35:26;;;;;;;38.90;14.95;;;;;;;;;;6286656;28;20402;-64
2022/10/19 00:38:27;;;;;;;36.85;14.95;;;;;;;;;;6287063;28;20157;-63
2022/10/19 00:41:32;;;;;;;36.45;14.13;;;;;;;;;;6290144;28;20494;-63
2022/10/19 00:44:52;;;;;;;36.85;13.93;;;;;;;;;;6289251;28;20075;-63
2022/10/19 00:47:53;;;;;;;38.22;14.48;;;;;;;;;;6291125;28;20048;-63
2022/10/19 00:50:57;;;;;;;39.15;16.17;;;;;;;;;;6291095;28;20058;-63
2022/10/19 00:53:59;;;;;;;39.55;15.00;;;;;;;;;;6291360;28;20056;-64
2022/10/19 00:57:00;;;;;;;33.67;14.63;;;;;;;;;;6291876;28;20049;-63
2022/10/19 01:00:04;;;;;;;38.92;14.70;;;;;;;;;;6288261;28;20040;-63
2022/10/19 01:03:05;;;;;;;43.67;16.30;;;;;;;;;;6286772;28;20088;-64
2022/10/19 01:06:07;;;;;;;41.10;15.90;;;;;;;;;;6285836;28;20502;-63
2022/10/19 01:09:08;;;;;;;43.45;16.20;;;;;;;;;;6289894;28;20357;-63
2022/10/19 01:12:24;;;;;;;41.38;17.20;;;;;;;;;;6285317;28;20044;-63
2022/10/19 01:15:45;;;;;;;44.42;16.55;;;;;;;;;;6287473;28;20068;-64
2022/10/19 01:19:23;;;;;;;49.23;18.90;;;;;;;;;;6283031;28;20389;-63
2022/10/19 01:23:02;;;;;;;49.83;18.83;;;;;;;;;;6284416;28;20416;-64
2022/10/19 01:26:37;;;;;;;49.00;18.52;;;;;;;;;;6287134;28;20049;-64
2022/10/19 01:29:53;;;;;;;51.17;18.45;;;;;;;;;;6285324;28;20533;-63
2022/10/19 01:33:02;;;;;;;51.35;19.08;;;;;;;;;;6285041;28;20063;-63
2022/10/19 01:36:15;;;;;;;53.95;19.45;;;;;;;;;;6285836;28;20551;-64
2022/10/19 01:39:27;;;;;;;56.30;20.23;;;;;;;;;;6283729;28;20080;-64
2022/10/19 01:42:35;;;;;;;60.47;20.30;;;;;;;;;;6284783;28;20155;-64
2022/10/19 01:45:41;;;;;;;60.28;21.40;;;;;;;;;;6286679;28;20059;-63
2022/10/19 01:48:50;;;;;;;59.15;21.80;;;;;;;;;;6284799;28;20036;-64
2022/10/19 01:51:57;;;;;;;58.38;21.40;;;;;;;;;;6283146;28;20036;-64
2022/10/19 01:55:00;;;;;;;60.80;20.65;;;;;;;;;;6286375;28;20139;-64
2022/10/19 01:58:06;;;;;;;63.42;20.98;;;;;;;;;;6286099;28;20043;-63
2022/10/19 02:01:09;;;;;;;57.83;20.23;;;;;;;;;;6284403;28;20052;-63
2022/10/19 02:04:14;;;;;;;51.47;19.80;;;;;;;;;;6285896;28;20083;-64
2022/10/19 02:07:15;;;;;;;51.05;19.52;;;;;;;;;;6285456;28;20045;-64
2022/10/19 02:10:18;;;;;;;49.67;19.17;;;;;;;;;;6284890;28;20049;-64
2022/10/19 02:13:20;;;;;;;46.50;16.85;;;;;;;;;;6285950;28;20483;-64
2022/10/19 02:16:29;;;;;;;48.58;17.42;;;;;;;;;;6290015;28;20411;-64
2022/10/19 02:19:31;;;;;;;43.85;16.55;;;;;;;;;;6294451;28;20075;-64
2022/10/19 02:22:31;;;;;;;43.05;16.77;;;;;;;;;;6288170;28;20056;-64
2022/10/19 02:25:33;;;;;;;44.13;15.95;;;;;;;;;;6289742;28;20874;-64
2022/10/19 02:28:34;;;;;;;46.58;17.00;;;;;;;;;;6289446;28;20040;-64
2022/10/19 02:31:36;;;;;;;49.42;16.63;;;;;;;;;;6292724;28;20059;-64
2022/10/19 02:34:38;;;;;;;50.75;16.55;;;;;;;;;;6291757;28;20044;-64
2022/10/19 02:37:39;;;;;;;49.55;16.95;;;;;;;;;;6291847;28;20513;-64
2022/10/19 02:40:43;;;;;;;50.17;18.38;;;;;;;;;;6296852;28;20053;-63
2022/10/19 02:43:48;;;;;;;49.72;17.52;;;;;;;;;;6287169;28;20053;-64
2022/10/19 02:46:53;;;;;;;49.67;17.20;;;;;;;;;;6289257;28;20082;-64
2022/10/19 02:49:55;;;;;;;52.13;18.10;;;;;;;;;;6295546;28;20147;-64
2022/10/19 02:52:57;;;;;;;48.72;18.00;;;;;;;;;;6290699;28;20045;-63
2022/10/19 02:55:58;;;;;;;53.33;18.80;;;;;;;;;;6293709;28;20526;-63
2022/10/19 02:58:59;;;;;;;51.42;18.77;;;;;;;;;;6291671;28;20052;-63
2022/10/19 03:02:00;;;;;;;60.73;19.93;;;;;;;;;;6288678;28;20056;-64
2022/10/19 03:05:01;;;;;;;61.85;21.00;;;;;;;;;;6291413;28;20309;-64
2022/10/19 03:08:01;;;;;;;62.17;20.50;;;;;;;;;;6289222;28;20676;-64
2022/10/19 03:11:02;;;;;;;59.83;20.08;;;;;;;;;;6291969;28;20052;-64
2022/10/19 03:14:02;;;;;;;68.90;22.38;;;;;;;;;;6294036;28;20131;-64
2022/10/19 03:17:04;;;;;;;66.57;21.98;;;;;;;;;;6290618;28;20063;-63
2022/10/19 03:20:05;;;;;;;66.90;21.70;;;;;;;;;;6291192;28;20068;-64
2022/10/19 03:23:06;;;;;;;72.07;24.33;;;;;;;;;;6289382;28;20479;-64
2022/10/19 03:26:08;;;;;;;64.18;22.27;;;;;;;;;;6289130;28;20395;-63
2022/10/19 03:29:08;;;;;;;58.80;21.08;;;;;;;;;;6289065;28;20052;-64
2022/10/19 03:32:09;;;;;;;64.68;21.38;;;;;;;;;;6287784;28;20044;-64
2022/10/19 03:35:10;;;;;;;65.55;21.92;;;;;;;;;;6293019;28;20627;-64
2022/10/19 03:38:11;;;;;;;61.70;20.13;;;;;;;;;;6288562;28;20194;-63
2022/10/19 03:41:12;;;;;;;62.63;20.95;;;;;;;;;;6288627;28;20052;-64
2022/10/19 03:44:12;;;;;;;63.67;22.05;;;;;;;;;;6287055;28;20395;-64
2022/10/19 03:47:13;;;;;;;61.38;21.73;;;;;;;;;;6289695;28;20462;-64
2022/10/19 03:50:15;;;;;;;60.42;20.92;;;;;;;;;;6289839;28;20123;-64
2022/10/19 03:53:16;;;;;;;54.75;20.10;;;;;;;;;;6286770;28;20056;-63
2022/10/19 03:56:19;;;;;;;58.85;21.48;;;;;;;;;;6286693;28;20182;-64
2022/10/19 03:59:20;;;;;;;61.05;21.95;;;;;;;;;;6286504;28;20056;-63
2022/10/19 04:02:21;;;;;;;55.25;19.45;;;;;;;;;;6289695;28;20155;-64
2022/10/19 04:05:21;;;;;;;58.97;20.33;;;;;;;;;;6287952;28;20090;-64
2022/10/19 04:08:22;;;;;;;50.63;18.90;;;;;;;;;;6287455;28;20064;-64
2022/10/19 04:11:29;;;;;;;52.00;19.60;;;;;;;;;;6286056;28;20055;-63
2022/10/19 04:14:30;;;;;;;51.17;18.05;;;;;;;;;;6288883;28;20041;-63
2022/10/19 04:17:30;;;;;;;51.55;20.20;;;;;;;;;;6288500;28;20075;-64
2022/10/19 04:20:31;;;;;;;53.22;19.45;;;;;;;;;;6285364;28;20938;-63
2022/10/19 04:23:34;;;;;;;61.83;19.20;;;;;;;;;;6285716;28;20045;-63
2022/10/19 04:26:42;;;;;;;45.00;16.13;;;;;;;;;;6287802;28;20047;-67
2022/10/19 04:29:43;;;;;;;45.75;17.55;;;;;;;;;;6287088;28;20040;-63
2022/10/19 04:32:43;;;;;;;45.08;16.42;;;;;;;;;;6286831;28;20563;-64
2022/10/19 04:35:44;;;;;;;46.65;17.10;;;;;;;;;;6286667;28;20041;-63
2022/10/19 04:38:44;;;;;;;50.75;17.65;;;;;;;;;;6286262;28;20048;-63
2022/10/19 04:41:45;;;;;;;50.67;18.73;;;;;;;;;;6289608;28;20480;-64
2022/10/19 04:44:46;;;;;;;47.38;17.02;;;;;;;;;;6282253;28;20499;-64
2022/10/19 04:47:46;;;;;;;47.85;18.05;;;;;;;;;;6285213;28;20053;-63
2022/10/19 04:50:47;;;;;;;49.33;18.00;;;;;;;;;;6285936;28;20070;-63
2022/10/19 04:53:48;;;;;;;50.10;18.10;;;;;;;;;;6284315;28;20048;-63
2022/10/19 04:56:49;;;;;;;48.22;18.58;;;;;;;;;;6285766;28;20048;-63
2022/10/19 04:59:49;;;;;;;49.53;17.98;;;;;;;;;;6285198;28;20044;-64
2022/10/19 05:02:50;;;;;;;51.55;19.58;;;;;;;;;;6285853;28;20076;-63
2022/10/19 05:05:50;;;;;;;52.88;21.40;;;;;;;;;;6285058;28;20044;-63
2022/10/19 05:08:51;;;;;;;50.65;18.25;;;;;;;;;;6287693;28;20045;-64
2022/10/19 05:11:51;;;;;;;47.22;17.65;;;;;;;;;;6288489;28;20041;-63
2022/10/19 05:14:52;;;;;;;51.75;18.65;;;;;;;;;;6284764;28;20052;-63
2022/10/19 05:17:53;;;;;;;47.33;17.23;;;;;;;;;;6286502;28;20105;-63
2022/10/19 05:21:12;;;;;;;49.15;18.52;;;;;;;;;;6291503;28;20097;-63
2022/10/19 05:24:12;;;;;;;53.83;18.33;;;;;;;;;;6288431;28;20095;-63
2022/10/19 05:27:13;;;;;;;49.25;19.15;;;;;;;;;;6289551;28;20102;-63
2022/10/19 05:30:13;;;;;;;51.60;19.67;;;;;;;;;;6291642;28;20056;-63
2022/10/19 05:33:14;;;;;;;44.75;17.60;;;;;;;;;;6287103;28;20082;-64
2022/10/19 05:36:25;;;;;;;47.85;16.85;;;;;;;;;;6284908;28;20106;-64
2022/10/19 05:39:25;;;;;;;41.38;16.05;;;;;;;;;;6283799;28;20080;-64
2022/10/19 05:42:26;;;;;;;46.70;16.23;;;;;;;;;;6286562;28;20060;-63
2022/10/19 05:45:27;;;;;;;44.35;15.90;;;;;;;;;;6290354;28;20055;-61
2022/10/19 05:48:31;;;;;;;43.40;16.45;;;;;;;;;;6293001;28;20056;-61
2022/10/19 05:51:32;;;;;;;47.75;17.48;;;;;;;;;;6292789;28;20079;-62
2022/10/19 05:54:34;;;;;;;42.15;16.20;;;;;;;;;;6291818;28;20052;-62
2022/10/19 05:57:35;;;;;;;53.17;18.15;;;;;;;;;;6291840;28;20079;-62
2022/10/19 06:00:36;;;;;;;47.10;16.70;;;;;;;;;;6292638;28;20036;-64
2022/10/19 06:03:36;;;;;;;51.85;17.55;;;;;;;;;;6288370;28;20056;-62
2022/10/19 06:06:37;;;;;;;58.08;22.42;;;;;;;;;;6290278;28;20094;-62
2022/10/19 06:09:38;;;;;;;46.13;16.92;;;;;;;;;;6291627;28;20135;-62
2022/10/19 06:12:38;;;;;;;50.97;20.38;;;;;;;;;;6290731;28;20063;-62
2022/10/19 06:15:39;;;;;;;41.83;17.48;;;;;;;;;;6290052;28;20072;-63
2022/10/19 06:18:41;;;;;;;47.65;17.95;;;;;;;;;;6291461;28;20123;-64
2022/10/19 06:21:44;;;;;;;49.10;17.77;;;;;;;;;;6291719;28;20142;-65
2022/10/19 06:24:44;;;;;;;51.22;18.63;;;;;;;;;;6290329;28;20562;-65
2022/10/19 06:27:45;;;;;;;47.80;18.25;;;;;;;;;;6290682;28;20051;-62
2022/10/19 06:30:46;;;;;;;47.85;18.27;;;;;;;;;;6287627;28;20051;-62
2022/10/19 06:33:46;;;;;;;51.97;19.30;;;;;;;;;;6284458;28;20045;-62
2022/10/19 06:36:47;;;;;;;63.22;19.98;;;;;;;;;;6282050;28;20048;-64
2022/10/19 06:39:48;;;;;;;61.13;20.42;;;;;;;;;;6287108;28;20052;-62
2022/10/19 06:42:48;;;;;;;64.00;22.23;;;;;;;;;;6284053;28;20055;-62
2022/10/19 06:45:49;;;;;;;61.40;22.95;;;;;;;;;;6282595;28;20590;-62
2022/10/19 06:48:58;;;;;;;65.30;23.05;;;;;;;;;;6284591;28;20102;-62
2022/10/19 06:51:58;;;;;;;73.93;24.48;;;;;;;;;;6284170;28;20728;-62
2022/10/19 06:54:59;;;;;;;76.03;24.95;;;;;;;;;;6281211;28;20075;-62
2022/10/19 06:58:00;;;;;;;73.88;25.45;;;;;;;;;;6282950;28;20174;-62
2022/10/19 07:01:02;;;;;;;79.55;25.38;;;;;;;;;;6286053;28;20048;-62
2022/10/19 07:04:02;;;;;;;72.93;23.83;;;;;;;;;;6289557;28;20052;-62
2022/10/19 07:07:03;;;;;;;71.30;24.80;;;;;;;;;;6287134;28;20051;-62
2022/10/19 07:10:05;;;;;;;71.67;24.77;;;;;;;;;;6288515;28;20546;-62
2022/10/19 07:13:05;;;;;;;74.53;25.13;;;;;;;;;;6288837;28;20051;-62
2022/10/19 07:16:10;;;;;;;71.40;24.58;;;;;;;;;;6288910;28;20668;-63
2022/10/19 07:19:12;;;;;;;69.30;25.60;;;;;;;;;;6288138;28;20089;-64
2022/10/19 07:22:12;;;;;;;72.63;25.60;;;;;;;;;;6286768;28;20202;-62
2022/10/19 07:25:13;;;;;;;72.18;24.52;;;;;;;;;;6287790;28;20048;-65
2022/10/19 07:28:14;;;;;;;76.28;25.08;;;;;;;;;;6288775;28;20048;-64
2022/10/19 07:31:19;;;;;;;59.80;21.75;;;;;;;;;;6294780;28;20033;-64
2022/10/19 07:34:20;;;;;;;73.25;24.33;;;;;;;;;;6295165;28;20080;-66
2022/10/19 07:37:20;;;;;;;54.88;20.80;;;;;;;;;;6289878;28;20052;-62
2022/10/19 07:40:21;;;;;;;62.78;22.25;;;;;;;;;;6293341;28;20062;-62
2022/10/19 07:43:21;;;;;;;64.57;23.40;;;;;;;;;;6295031;28;20056;-62
2022/10/19 07:46:25;;;;;;;67.80;22.75;;;;;;;;;;6293318;28;20059;-64
2022/10/19 07:49:25;;;;;;;57.67;21.63;;;;;;;;;;6295069;28;20040;-63
2022/10/19 07:52:26;;;;;;;58.70;21.42;;;;;;;;;;6294791;28;20509;-64
2022/10/19 07:55:26;;;;;;;56.45;21.23;;;;;;;;;;6291574;28;20094;-66
2022/10/19 07:58:27;;;;;;;57.28;19.65;;;;;;;;;;6291431;28;20075;-65
2022/10/19 08:01:30;;;;;;;59.35;19.98;;;;;;;;;;6287314;28;20241;-62
2022/10/19 08:04:31;;;;;;;48.97;18.27;;;;;;;;;;6287855;28;20164;-66
2022/10/19 08:07:34;;;;;;;55.00;19.38;;;;;;;;;;6285133;28;20045;-63
2022/10/19 08:10:34;;;;;;;45.90;17.02;;;;;;;;;;6286559;28;20131;-62
2022/10/19 08:13:36;;;;;;;41.13;15.23;;;;;;;;;;6285871;28;20521;-65
2022/10/19 08:16:39;;;;;;;48.25;16.15;;;;;;;;;;6284349;28;21473;-62
2022/10/19 08:19:42;;;;;;;34.58;13.68;;;;;;;;;;6286064;28;20036;-67
2022/10/19 08:22:44;;;;;;;35.70;13.27;;;;;;;;;;6283827;28;20105;-67
2022/10/19 08:25:44;;;;;;;33.80;13.90;;;;;;;;;;6283359;28;20503;-66
2022/10/19 08:28:45;;;;;;;35.67;13.07;;;;;;;;;;6286465;28;20074;-68
2022/10/19 08:31:47;;;;;;;31.10;11.77;;;;;;;;;;6285447;28;20407;-64
2022/10/19 08:34:47;;;;;;;35.28;13.32;;;;;;;;;;6286872;28;20103;-66
2022/10/19 08:37:48;;;;;;;30.08;11.05;;;;;;;;;;6283797;28;20634;-65
2022/10/19 08:40:49;;;;;;;20.55;9.40;;;;;;;;;;6287514;28;20199;-65
2022/10/19 08:44:00;;;;;;;26.25;8.98;;;;;;;;;;6287414;28;20040;-63
2022/10/19 08:47:16;;;;;;;25.27;8.90;;;;;;;;;;6290891;28;20140;-64
2022/10/19 08:50:21;;;;;;;23.10;9.25;;;;;;;;;;6290869;28;20055;-63
2022/10/19 08:54:01;;;;;;;22.27;8.60;;;;;;;;;;6293177;28;20510;-64
2022/10/19 08:57:13;;;;;;;28.00;9.15;;;;;;;;;;6292968;28;20059;-67
2022/10/19 09:00:51;;;;;;;23.88;9.05;;;;;;;;;;6292387;28;20185;-64
2022/10/19 09:03:59;;;;;;;25.50;9.02;;;;;;;;;;6291959;28;20415;-68
2022/10/19 09:07:24;;;;;;;23.27;8.13;;;;;;;;;;6292000;28;20060;-68
2022/10/19 09:10:37;;;;;;;23.98;7.50;;;;;;;;;;6285784;28;20079;-65
2022/10/19 09:13:48;;;;;;;24.77;7.93;;;;;;;;;;6286309;28;20048;-64
2022/10/19 09:16:49;;;;;;;22.08;7.68;;;;;;;;;;6283319;28;20045;-65
2022/10/19 09:19:50;;;;;;;18.52;7.53;;;;;;;;;;6285741;28;20071;-63
2022/10/19 09:23:17;;;;;;;19.33;6.95;;;;;;;;;;6289032;28;20098;-64
2022/10/19 09:26:21;;;;;;;18.65;7.00;;;;;;;;;;6290000;28;20132;-62
2022/10/19 09:29:46;;;;;;;19.00;8.63;;;;;;;;;;6289522;28;20037;-65
2022/10/19 09:32:50;;;;;;;25.45;8.38;;;;;;;;;;6284051;28;20044;-66
2022/10/19 09:35:54;;;;;;;24.05;8.38;;;;;;;;;;6290101;28;20069;-66
2022/10/19 09:38:55;;;;;;;19.27;6.70;;;;;;;;;;6289363;28;20072;-64
2022/10/19 09:42:07;;;;;;;17.85;7.20;;;;;;;;;;6291361;28;20044;-64
2022/10/19 09:45:18;;;;;;;21.02;5.53;;;;;;;;;;6290691;28;20045;-62
2022/10/19 09:48:31;;;;;;;12.85;4.38;;;;;;;;;;6285948;28;20047;-62
2022/10/19 09:51:50;;;;;;;11.85;3.63;;;;;;;;;;6284129;28;20094;-65
2022/10/19 09:55:00;;;;;;;12.80;3.65;;;;;;;;;;6282508;28;20143;-66
2022/10/19 09:58:15;;;;;;;11.70;4.13;;;;;;;;;;6283517;28;20135;-65
2022/10/19 10:01:39;;;;;;;15.55;4.63;;;;;;;;;;6284292;28;20170;-65
2022/10/19 10:04:39;;;;;;;14.60;4.50;;;;;;;;;;6280201;28;20071;-64
2022/10/19 10:07:40;;;;;;;12.57;4.57;;;;;;;;;;6284194;28;20544;-63
2022/10/19 10:10:45;;;;;;;22.52;6.13;;;;;;;;;;6286359;28;20123;-64
2022/10/19 10:13:50;;;;;;;13.05;5.40;;;;;;;;;;6285927;28;20351;-65
2022/10/19 10:16:56;;;;;;;12.23;5.13;;;;;;;;;;6282820;28;20586;-65
2022/10/19 10:19:56;;;;;;;11.75;5.03;;;;;;;;;;6284108;28;20156;-63
2022/10/19 10:23:01;;;;;;;15.30;5.03;;;;;;;;;;6285007;28;20045;-62
2022/10/19 10:26:03;;;;;;;16.58;6.50;;;;;;;;;;6283065;28;20040;-63
2022/10/19 10:29:22;;;;;;;18.90;6.20;;;;;;;;;;6281874;28;20386;-65
2022/10/19 10:32:23;;;;;;;14.05;5.43;;;;;;;;;;6289703;28;20052;-64
2022/10/19 10:35:35;;;;;;;15.82;5.15;;;;;;;;;;6289806;28;20601;-65
2022/10/19 10:38:43;;;;;;;15.97;6.10;;;;;;;;;;6288761;28;20376;-65
2022/10/19 10:41:46;;;;;;;11.63;5.55;;;;;;;;;;6290447;28;20056;-64
2022/10/19 10:44:50;;;;;;;20.23;5.18;;;;;;;;;;6289330;28;20059;-66
2022/10/19 10:47:51;;;;;;;15.50;5.50;;;;;;;;;;6286214;28;20044;-62
2022/10/19 10:50:52;;;;;;;12.23;4.90;;;;;;;;;;6288953;28;20427;-62
2022/10/19 10:54:13;;;;;;;16.27;5.88;;;;;;;;;;6290253;28;20044;-66
2022/10/19 10:57:18;;;;;;;13.30;5.00;;;;;;;;;;6286062;28;20045;-63
2022/10/19 11:00:22;;;;;;;13.50;4.70;;;;;;;;;;6288028;28;20597;-65
2022/10/19 11:03:32;;;;;;;11.80;5.32;;;;;;;;;;6292521;28;20085;-62
2022/10/19 11:06:38;;;;;;;14.82;5.53;;;;;;;;;;6292362;28;20453;-68
2022/10/19 11:09:47;;;;;;;15.77;5.20;;;;;;;;;;6290399;28;20389;-63
2022/10/19 11:13:15;;;;;;;15.43;4.93;;;;;;;;;;6287575;28;20081;-63
2022/10/19 11:16:25;;;;;;;13.77;4.32;;;;;;;;;;6286237;28;20053;-65
2022/10/19 11:19:34;;;;;;;10.88;4.10;;;;;;;;;;6289487;28;20045;-63
2022/10/19 11:22:52;;;;;;;12.23;5.05;;;;;;;;;;6287704;28;20905;-64
2022/10/19 11:26:08;;;;;;;13.63;4.68;;;;;;;;;;6290381;28;20482;-65
2022/10/19 11:29:40;;;;;;;14.55;5.00;;;;;;;;;;6293777;28;20476;-68
2022/10/19 11:33:05;;;;;;;13.38;5.28;;;;;;;;;;6288710;28;20068;-63
2022/10/19 11:36:33;;;;;;;14.40;5.25;;;;;;;;;;6290746;28;20048;-65
2022/10/19 11:39:45;;;;;;;13.00;4.95;;;;;;;;;;6287560;28;20155;-65
2022/10/19 11:43:17;;;;;;;15.67;4.87;;;;;;;;;;6284223;28;20049;-63
2022/10/19 11:46:23;;;;;;;;;;;;;;;;;;6269703;28;20051;-62
2022/10/19 11:49:37;;;;;;;10.93;4.60;;;;;;;;;;6287212;28;20256;-61
2022/10/19 11:53:01;;;;;;;13.10;4.68;;;;;;;;;;6285706;28;20044;-61
2022/10/19 11:56:27;;;;;;;12.80;4.60;;;;;;;;;;6286162;28;20054;-63
2022/10/19 11:59:52;;;;;;;19.55;4.55;;;;;;;;;;6288629;28;20095;-62
2022/10/19 12:03:16;;;;;;;12.95;5.47;;;;;;;;;;6287243;28;20194;-68
2022/10/19 12:06:49;;;;;;;11.05;4.53;;;;;;;;;;6287676;28;20177;-65
2022/10/19 12:10:06;;;;;;;11.40;4.60;;;;;;;;;;6267967;28;20049;-69
2022/10/19 12:13:15;;;;;;;10.45;4.22;;;;;;;;;;6285978;28;20490;-63
2022/10/19 12:16:19;;;;;;;10.45;3.80;;;;;;;;;;6287070;28;20694;-62
2022/10/19 12:19:24;;;;;;;7.43;3.97;;;;;;;;;;6284638;28;20131;-63
2022/10/19 12:22:28;;;;;;;13.73;4.35;;;;;;;;;;6282293;28;20082;-61
2022/10/19 12:25:29;;;;;;;11.20;3.65;;;;;;;;;;6286765;28;20083;-61
2022/10/19 12:28:32;;;;;;;9.85;3.38;;;;;;;;;;6287724;28;20105;-64
2022/10/19 12:31:34;;;;;;;12.57;4.22;;;;;;;;;;6286353;28;20074;-63
2022/10/19 12:34:58;;;;;;;14.45;3.78;;;;;;;;;;6284912;28;20064;-63
2022/10/19 12:38:17;;;;;;;12.43;3.47;;;;;;;;;;6286041;28;20048;-62
2022/10/19 12:41:53;;;;;;;14.82;4.45;;;;;;;;;;6286359;28;20478;-65
2022/10/19 12:45:09;;;;;;;9.80;3.33;;;;;;;;;;6285386;28;20099;-69
2022/10/19 12:48:17;;;;;;;9.68;4.10;;;;;;;;;;6285341;28;20098;-67
2022/10/19 12:51:18;;;;;;;14.85;5.60;;;;;;;;;;6285786;28;20126;-67
2022/10/19 12:54:24;;;;;;;14.73;4.65;;;;;;;;;;6285338;28;20385;-67
2022/10/19 12:57:29;;;;;;;10.73;5.45;;;;;;;;;;6285618;28;20519;-65
2022/10/19 13:00:36;;;;;;;12.40;4.30;;;;;;;;;;6286056;28;20176;-67
2022/10/19 13:03:42;;;;;;;15.93;5.70;;;;;;;;;;6286079;28;20575;-63
2022/10/19 13:06:57;;;;;;;14.32;5.20;;;;;;;;;;6286523;28;20048;-65
2022/10/19 13:10:04;;;;;;;17.80;5.15;;;;;;;;;;6285691;28;20147;-63
2022/10/19 13:13:43;;;;;;;11.85;4.82;;;;;;;;;;6284484;28;20068;-64
2022/10/19 13:17:02;;;;;;;13.93;5.40;;;;;;;;;;6282803;28;20519;-62
2022/10/19 13:20:17;;;;;;;12.10;4.28;;;;;;;;;;6284775;28;20048;-66
2022/10/19 13:23:39;;;;;;;14.27;4.53;;;;;;;;;;6285082;28;20047;-63
2022/10/19 13:26:39;;;;;;;11.90;4.55;;;;;;;;;;6281681;28;20048;-65
2022/10/19 13:29:43;;;;;;;15.70;4.35;;;;;;;;;;6284256;28;20144;-61
2022/10/19 13:32:44;;;;;;;14.68;4.47;;;;;;;;;;6283523;28;20045;-61
2022/10/19 13:35:45;;;;;;;11.77;5.10;;;;;;;;;;6284969;28;20072;-65
2022/10/19 13:38:58;;;;;;;17.10;5.10;;;;;;;;;;6285374;28;20456;-64
2022/10/19 13:41:58;;;;;;;20.95;5.53;;;;;;;;;;6285069;28;20048;-65
2022/10/19 13:44:59;;;;;;;30.50;8.45;;;;;;;;;;6285221;28;20167;-65
2022/10/19 13:48:14;;;;;;;24.58;6.40;;;;;;;;;;6282685;28;20049;-64
2022/10/19 13:51:35;;;;;;;21.20;6.03;;;;;;;;;;6285822;28;20044;-64
2022/10/19 13:55:13;;;;;;;24.30;6.20;;;;;;;;;;6283535;28;20174;-61
2022/10/19 13:58:46;;;;;;;31.38;6.45;;;;;;;;;;6282398;28;20463;-60
2022/10/19 14:02:01;;;;;;;32.55;7.63;;;;;;;;;;6279370;28;20040;-63
2022/10/19 14:05:39;;;;;;;53.10;10.80;;;;;;;;;;6286776;28;20048;-64
2022/10/19 14:09:16;;;;;;;20.58;7.00;;;;;;;;;;6286172;28;20076;-62
2022/10/19 14:12:22;;;;;;;12.38;5.00;;;;;;;;;;6290474;28;20139;-64
2022/10/19 14:15:26;;;;;;;24.02;6.68;;;;;;;;;;6286638;28;20139;-63
2022/10/19 14:18:32;;;;;;;21.98;6.75;;;;;;;;;;6285018;28;20131;-63
2022/10/19 14:21:35;;;;;;;22.10;6.22;;;;;;;;;;6287995;28;20131;-62
2022/10/19 14:24:36;;;;;;;16.33;5.65;;;;;;;;;;6291315;28;20050;-62
2022/10/19 14:27:37;;;;;;;13.68;5.60;;;;;;;;;;6290321;28;20083;-62
2022/10/19 14:30:37;;;;;;;15.45;5.20;;;;;;;;;;6292366;28;20041;-62
2022/10/19 14:33:40;;;;;;;13.23;4.80;;;;;;;;;;6292512;28;20118;-63
2022/10/19 14:36:48;;;;;;;12.90;5.10;;;;;;;;;;6265989;28;20053;-62
2022/10/19 14:40:20;;;;;;;10.07;4.13;;;;;;;;;;6270289;28;20494;-62
2022/10/19 14:43:32;;;;;;;15.00;4.22;;;;;;;;;;6268586;28;20048;-62
2022/10/19 14:46:33;;;;;;;14.50;4.55;;;;;;;;;;6267648;28;20132;-62
2022/10/19 14:49:34;;;;;;;11.27;4.47;;;;;;;;;;6272918;28;20562;-62
2022/10/19 14:52:37;;;;;;;10.30;4.78;;;;;;;;;;6266996;28;20488;-66
2022/10/19 14:55:39;;;;;;;7.93;3.67;;;;;;;;;;6270851;28;20048;-62
2022/10/19 14:58:58;;;;;;;15.32;4.25;;;;;;;;;;6267664;28;20049;-63
2022/10/19 15:02:03;;;;;;;9.57;3.50;;;;;;;;;;6268195;28;20303;-64
2022/10/19 15:05:12;;;;;;;10.48;3.70;;;;;;;;;;6265476;28;20048;-62
2022/10/19 15:08:25;;;;;;;10.60;3.25;;;;;;;;;;6268345;28;20048;-61
2022/10/19 15:11:32;;;;;;;8.90;3.50;;;;;;;;;;6270188;28;20055;-62
2022/10/19 15:14:32;;;;;;;13.77;4.97;;;;;;;;;;6260002;28;20148;-64
2022/10/19 15:17:51;;;;;;;9.18;3.58;;;;;;;;;;6274990;28;20053;-61
2022/10/19 15:21:14;;;;;;;10.82;3.80;;;;;;;;;;6273400;28;20048;-62
2022/10/19 15:24:23;;;;;;;9.63;3.85;;;;;;;;;;6275320;28;21261;-62
2022/10/19 15:27:35;;;;;;;11.13;3.78;;;;;;;;;;6275376;28;20840;-63
2022/10/19 15:30:36;;;;;;;18.20;4.22;;;;;;;;;;6276687;28;20056;-63
2022/10/19 15:33:43;;;;;;;12.48;3.50;;;;;;;;;;6268921;28;20482;-63
2022/10/19 15:36:54;;;;;;;10.73;3.95;;;;;;;;;;6269599;28;20148;-61
2022/10/19 15:39:55;;;;;;;12.93;4.10;;;;;;;;;;6276271;28;20052;-61
2022/10/19 15:42:55;;;;;;;13.68;4.50;;;;;;;;;;6274761;28;20440;-65
2022/10/19 15:46:12;;;;;;;14.48;4.88;;;;;;;;;;6271163;28;20495;-62
2022/10/19 15:49:16;;;;;;;32.15;12.65;;;;;;;;;;6274821;28;20045;-61
2022/10/19 15:52:22;;;;;;;20.88;8.65;;;;;;;;;;6278554;28;20052;-62
2022/10/19 15:55:23;;;;;;;24.67;10.10;;;;;;;;;;6273345;28;20132;-62
2022/10/19 15:58:24;;;;;;;18.45;6.68;;;;;;;;;;6273811;28;20055;-62
2022/10/19 16:01:30;;;;;;;16.45;6.07;;;;;;;;;;6276229;28;20602;-61
2022/10/19 16:04:30;;;;;;;28.95;11.65;;;;;;;;;;6271996;28;20049;-63
2022/10/19 16:07:34;;;;;;;29.88;10.20;;;;;;;;;;6271673;28;20075;-64
2022/10/19 16:10:35;;;;;;;24.77;9.57;;;;;;;;;;6270607;28;20060;-63
2022/10/19 16:13:35;;;;;;;23.40;11.50;;;;;;;;;;6272477;28;20546;-63
2022/10/19 16:16:36;;;;;;;16.48;7.60;;;;;;;;;;6269912;28;20048;-63
2022/10/19 16:19:37;;;;;;;37.08;18.13;;;;;;;;;;6270166;28;20054;-65
2022/10/19 16:22:37;;;;;;;25.65;11.52;;;;;;;;;;6271000;28;20046;-64
2022/10/19 16:25:38;;;;;;;20.83;8.68;;;;;;;;;;6270782;28;20056;-64
2022/10/19 16:28:38;;;;;;;19.13;7.20;;;;;;;;;;6267986;28;20051;-64
2022/10/19 16:31:39;;;;;;;18.55;7.97;;;;;;;;;;6273098;28;20058;-60
2022/10/19 16:34:40;;;;;;;22.58;7.75;;;;;;;;;;6267865;28;21128;-62
2022/10/19 16:37:41;;;;;;;26.42;8.63;;;;;;;;;;6267576;28;20109;-61
2022/10/19 16:40:41;;;;;;;31.23;10.43;;;;;;;;;;6266089;28;20057;-63
2022/10/19 16:43:42;;;;;;;29.45;12.25;;;;;;;;;;6266256;28;20589;-62
2022/10/19 16:46:43;;;;;;;41.17;17.52;;;;;;;;;;6265124;28;20048;-62
2022/10/19 16:49:44;;;;;;;29.45;13.98;;;;;;;;;;6266348;28;20048;-63
2022/10/19 16:52:44;;;;;;;38.35;17.65;;;;;;;;;;6269345;28;20052;-62
2022/10/19 16:55:45;;;;;;;94.93;31.15;;;;;;;;;;6266828;28;20048;-65
2022/10/19 16:58:45;;;;;;;86.53;52.63;;;;;;;;;;6268123;28;20060;-63
2022/10/19 17:01:46;;;;;;;36.50;13.52;;;;;;;;;;6265982;28;20056;-62
2022/10/19 17:04:47;;;;;;;26.70;9.82;;;;;;;;;;6267589;28;20048;-62
2022/10/19 17:07:47;;;;;;;28.90;9.68;;;;;;;;;;6267842;28;20052;-62
2022/10/19 17:10:48;;;;;;;36.88;14.50;;;;;;;;;;6266915;28;20049;-63
2022/10/19 17:13:51;;;;;;;64.73;41.30;;;;;;;;;;6267225;28;20148;-63
2022/10/19 17:16:52;;;;;;;92.85;36.53;;;;;;;;;;6266459;28;20076;-62
2022/10/19 17:19:52;;;;;;;540.00;153.07;;;;;;;;;;6267290;28;20045;-65
2022/10/19 17:22:53;;;;;;;34.20;12.77;;;;;;;;;;6268534;28;20044;-63
2022/10/19 17:25:53;;;;;;;35.25;10.85;;;;;;;;;;6264112;28;20990;-64
2022/10/19 17:28:54;;;;;;;28.15;10.55;;;;;;;;;;6267492;28;20037;-64
2022/10/19 17:31:55;;;;;;;27.35;10.57;;;;;;;;;;6266675;28;20097;-62
2022/10/19 17:34:55;;;;;;;25.05;9.60;;;;;;;;;;6264182;28;20040;-62
2022/10/19 17:37:56;;;;;;;27.10;10.25;;;;;;;;;;6264984;28;20484;-63
2022/10/19 17:41:01;;;;;;;28.95;10.57;;;;;;;;;;6265890;28;20051;-63
2022/10/19 17:44:03;;;;;;;27.98;10.63;;;;;;;;;;6267174;28;20059;-64
2022/10/19 17:47:04;;;;;;;;;;;;;;;;;;6266737;28;20106;-67
2022/10/19 17:50:05;;;;;;;28.63;10.15;;;;;;;;;;6266883;28;19928;-63
2022/10/19 17:53:05;;;;;;;29.35;9.82;;;;;;;;;;6267083;28;20076;-63
2022/10/19 17:56:07;;;;;;;28.48;9.88;;;;;;;;;;6264206;28;20131;-66
2022/10/19 17:59:08;;;;;;;29.13;11.77;;;;;;;;;;6265121;28;20084;-64
2022/10/19 18:02:09;;;;;;;33.33;11.80;;;;;;;;;;6268036;28;20053;-63
2022/10/19 18:05:10;;;;;;;28.77;11.10;;;;;;;;;;6267770;28;20128;-62
2022/10/19 18:08:12;;;;;;;30.73;12.20;;;;;;;;;;6268526;28;20175;-61
2022/10/19 18:11:16;;;;;;;35.95;12.75;;;;;;;;;;6266259;28;20052;-63